Terminal Aerodrome Forecast
Issued by NWS

Home | Current Version | Previous Version | Text Only | Print | Product List | Glossary On
Versions: 1 2 3 4 5 6 7 8 9 10 11 12 13 14 15 16 17 18 19 20 21 22 23 24 25 26 27 28 29
000
FTUS45 KSLC 291120
TAFEVW
TAF
KEVW 291120Z 2912/3012 VRB06KT P6SM VCSH SCT080 BKN100
     FM291500 22006KT P6SM VCSH SCT060 BKN090
     FM291800 34008KT P6SM VCTS BKN060CB OVC090
     FM300300 05010KT P6SM VCSH SCT060 BKN090=

USA.gov is the U.S. government's official web portal to all federal, state and local government web resources and services.